首页
METAR-TAF:

METAR-TAF

机场 :

西奧多·弗朗西斯·格林紀念州立機場

普罗维登斯, 罗得岛州, 美国

纬度: 41-43-26N, 经度: 071-25-41W, 海拔: 16米

当前天气观测

该预报发布于1小时和5分钟前的15:00 UTC
风速5节,风向南转南东
温度 19°C
湿度 100%
气压 1015 hPa
能見度: 6.4公里
阴天层高于400英尺
轻雾

METAR: KPVD 271500Z 15005KT 4SM BR OVC004 19/19 A2998 RMK AO2 T01940194 $

时间: 12:05 (16:05 UTC)

预报

该预报发布于1小时和40分钟前的14:25 UTC
预报有效从27日的 14点(UTC)到 28日的 12点(UTC)
风速5节,风向东转东南
能見度: 4.8公里
阴天层高于300英尺
轻雾
短暂存在
从 27日的 14点(UTC)到 27日的 15点(UTC)
能見度: 1.6公里
阴天层高于300英尺
小雨
从 27日的 1900点(UTC)
风速11节,风向南转南东
能見度: 1.6公里
阴天层高于300英尺
小毛毛雨, 轻雾
从 27日的 2200点(UTC)
风速11节,风向南转南东
能見度: 1.6公里
阴天层高于300英尺
小阵雨, 轻雾
从 28日的 0000点(UTC)
风速10节,风向,有时为17节阵风
能見度: 0.8公里
阴天层高于300英尺
阵雨, 雾
几率 30%
从 28日的 01点(UTC)到 28日的 07点(UTC)
能見度: 1.6公里
阴天层高于300英尺, 积雨云.
雷暴, 小雨, 轻雾
从 28日的 0700点(UTC)
风速8节,风向南转西南
能見度: 4.8公里
阴天层高于300英尺
轻雾,

TAF: KPVD 271425Z 2714/2812 11005KT 3SM BR OVC003 TEMPO 2714/2715 1SM -RA OVC003 FM271900 16011KT 1SM -DZ BR OVC003 FM272200 16011KT 1SM -SHRA BR OVC003 WS020/18040KT FM280000 18010G17KT 1/2SM SHRA FG OVC003 PROB30 2801/2807 1SM -TSRA BR OVC003CB FM280700 20008KT 3SM BR OVC003

超过4000个机场的气象观测和天气预报(METAR&TAF报告)。

可查询的气象台以黄色和红色小点在地图上表示。

将鼠标移到小点上方,可查看气象台名称。

然后点击查看天气观测和预报。

如需切换地图:点击带黑十字的绿色按钮放大地图;点击带横线的绿色按钮缩小地图;或者点击绿色箭头查看邻近地区的地图。


METAR-TAF: